Time;durP1;ratioP1;P1;durP2;ratioP2;P2;SDS_P1;SDS_P2;PMS_P1;PMS_P2;Temp;Humidity;BMP_temperature;BMP_pressure;BME280_temperature;BME280_humidity;BME280_pressure;Samples;Min_cycle;Max_cycle;Signal;HPM_P1;HPM_P2
2023/07/29 00:01:37;;;;;;;3.95;2.53;;;;;;;16.48;100.00;100092.16;4919411;29;20039;-82
2023/07/29 00:04:04;;;;;;;3.10;2.70;;;;;;;16.47;100.00;100093.97;5007374;28;20067;-83
2023/07/29 00:06:31;;;;;;;2.40;2.20;;;;;;;16.46;100.00;100086.91;4919299;28;20668;-83
2023/07/29 00:08:58;;;;;;;2.53;2.22;;;;;;;16.47;100.00;100085.13;4930248;28;20405;-82
2023/07/29 00:11:25;;;;;;;3.17;2.83;;;;;;;16.42;100.00;100093.38;4927607;28;20074;-82
2023/07/29 00:13:52;;;;;;;3.05;2.75;;;;;;;16.45;100.00;100087.88;4926472;29;20051;-83
2023/07/29 00:16:21;;;;;;;2.45;2.17;;;;;;;16.46;100.00;100081.59;4911971;29;20043;-81
2023/07/29 00:18:49;;;;;;;3.03;2.45;;;;;;;16.45;100.00;100081.69;4924380;28;20039;-81
2023/07/29 00:21:16;;;;;;;2.63;2.42;;;;;;;16.40;100.00;100081.09;4903908;28;20142;-84
2023/07/29 00:23:42;;;;;;;2.60;2.30;;;;;;;16.44;100.00;100074.63;4915169;28;20515;-83
2023/07/29 00:26:09;;;;;;;2.55;2.35;;;;;;;16.42;100.00;100080.03;4925303;28;20048;-82
2023/07/29 00:28:36;;;;;;;3.25;2.95;;;;;;;16.36;100.00;100071.50;4931359;28;20570;-82
2023/07/29 00:31:03;;;;;;;2.90;2.33;;;;;;;16.35;100.00;100080.44;4931996;28;20750;-82
2023/07/29 00:33:29;;;;;;;3.63;2.70;;;;;;;16.30;100.00;100076.22;4991887;28;20284;-82
2023/07/29 00:35:56;;;;;;;3.42;2.53;;;;;;;16.31;100.00;100075.28;4937279;29;21304;-82
2023/07/29 00:38:23;;;;;;;3.00;2.67;;;;;;;16.35;100.00;100065.31;4927845;28;20059;-82
2023/07/29 00:40:50;;;;;;;3.42;2.58;;;;;;;16.40;100.00;100062.41;4995013;28;20310;-82
2023/07/29 00:43:17;;;;;;;2.30;2.10;;;;;;;16.35;100.00;100065.31;4905879;28;20040;-82
2023/07/29 00:45:44;;;;;;;2.75;2.35;;;;;;;16.29;100.00;100068.31;4909925;28;20051;-81
2023/07/29 00:48:11;;;;;;;3.65;2.72;;;;;;;16.26;100.00;100066.66;4905332;28;20564;-82
2023/07/29 00:50:38;;;;;;;2.40;2.17;;;;;;;16.25;100.00;100069.44;4929236;28;20058;-82
2023/07/29 00:53:05;;;;;;;3.30;2.50;;;;;;;16.24;100.00;100070.38;4925379;28;20043;-83
2023/07/29 00:55:32;;;;;;;3.47;2.38;;;;;;;16.23;100.00;100072.19;4927912;28;21429;-81
2023/07/29 00:57:59;;;;;;;3.15;2.60;;;;;;;16.22;100.00;100083.75;4937499;28;20039;-83
2023/07/29 01:00:26;;;;;;;4.28;3.30;;;;;;;16.12;100.00;100063.00;5011306;28;20063;-82
2023/07/29 01:02:54;;;;;;;3.53;3.13;;;;;;;16.09;100.00;100063.19;4999141;28;20066;-84
2023/07/29 01:05:22;;;;;;;4.13;3.63;;;;;;;16.08;100.00;100066.78;5015093;28;20043;-83
2023/07/29 01:07:55;;;;;;;3.88;3.15;;;;;;;16.09;100.00;100069.38;4934399;28;20110;-83
2023/07/29 01:10:53;;;;;;;3.70;3.30;;;;;;;16.03;100.00;100061.69;4912120;28;20071;-81
2023/07/29 01:13:33;;;;;;;4.00;2.80;;;;;;;16.00;100.00;100064.53;4892514;28;20044;-81
2023/07/29 01:16:24;;;;;;;3.30;3.00;;;;;;;15.97;100.00;100059.34;4925357;28;20105;-81
2023/07/29 01:18:52;;;;;;;3.47;2.88;;;;;;;16.02;100.00;100057.31;4927312;28;20050;-81
2023/07/29 01:21:20;;;;;;;3.28;2.97;;;;;;;15.97;100.00;100060.19;4912267;28;20048;-82
2023/07/29 01:23:47;;;;;;;3.25;2.95;;;;;;;15.92;100.00;100056.06;4907795;28;20044;-81
2023/07/29 01:26:13;;;;;;;3.03;2.65;;;;;;;15.89;100.00;100057.09;4993558;28;20122;-80
2023/07/29 01:28:40;;;;;;;4.65;3.05;;;;;;;15.88;100.00;100062.47;4921782;28;20050;-81
2023/07/29 01:31:13;;;;;;;3.10;2.60;;;;;;;15.81;100.00;100055.75;4908766;28;20054;-81
2023/07/29 01:33:43;;;;;;;2.90;2.50;;;;;;;15.75;100.00;100055.13;5006679;28;20071;-82
2023/07/29 01:36:16;;;;;;;3.05;2.63;;;;;;;15.74;100.00;100049.91;4987900;28;20052;-81
2023/07/29 01:38:44;;;;;;;4.88;2.55;;;;;;;15.66;100.00;100060.94;4925923;28;20044;-81
2023/07/29 01:41:11;;;;;;;3.15;2.60;;;;;;;15.67;100.00;100065.31;4929372;28;20055;-82
2023/07/29 01:43:43;;;;;;;4.53;2.42;;;;;;;15.66;100.00;100060.06;4999527;28;20139;-82
2023/07/29 01:46:13;;;;;;;3.55;2.85;;;;;;;15.62;100.00;100059.34;5005822;28;20130;-82
2023/07/29 01:48:41;;;;;;;3.20;2.63;;;;;;;15.69;100.00;100063.44;4917308;28;20036;-80
2023/07/29 01:51:09;;;;;;;4.15;2.53;;;;;;;15.61;100.00;100056.78;4923839;28;20054;-81
2023/07/29 01:53:35;;;;;;;2.72;2.40;;;;;;;15.58;100.00;100057.78;4920967;28;20633;-82
2023/07/29 01:56:02;;;;;;;4.00;2.88;;;;;;;15.55;100.00;100057.91;4926258;28;20157;-80
2023/07/29 01:58:29;;;;;;;2.67;2.47;;;;;;;15.55;100.00;100059.72;4910422;28;20033;-81
2023/07/29 02:00:56;;;;;;;4.93;3.20;;;;;;;15.54;100.00;100063.31;4895068;28;20043;-82
2023/07/29 02:03:23;;;;;;;3.13;2.80;;;;;;;15.52;100.00;100059.88;5001408;28;20130;-81
2023/07/29 02:05:50;;;;;;;4.32;3.35;;;;;;;15.57;100.00;100052.53;4909246;28;20054;-81
2023/07/29 02:08:16;;;;;;;3.63;3.22;;;;;;;15.56;100.00;100059.66;4907273;28;20079;-82
2023/07/29 02:10:45;;;;;;;3.50;3.15;;;;;;;15.55;100.00;100051.72;4930547;28;20101;-82
2023/07/29 02:13:12;;;;;;;3.38;3.08;;;;;;;15.56;100.00;100061.47;4911522;28;20040;-83
2023/07/29 02:15:38;;;;;;;3.15;2.78;;;;;;;15.56;100.00;100053.47;5003084;28;20054;-82
2023/07/29 02:18:07;;;;;;;3.20;2.90;;;;;;;15.57;100.00;100053.38;4890637;28;20050;-82
2023/07/29 02:20:33;;;;;;;4.07;3.33;;;;;;;15.61;100.00;100051.44;4922678;28;20122;-82
2023/07/29 02:23:00;;;;;;;4.15;3.67;;;;;;;15.60;100.00;100055.03;4891465;29;20042;-81
2023/07/29 02:25:27;;;;;;;3.95;3.22;;;;;;;15.60;100.00;100047.91;4897497;28;20048;-80
2023/07/29 02:27:54;;;;;;;3.42;3.13;;;;;;;15.60;100.00;100045.22;4924303;29;20496;-79
2023/07/29 02:30:21;;;;;;;4.43;3.20;;;;;;;15.56;100.00;100038.34;4927755;28;20043;-81
2023/07/29 02:32:48;;;;;;;4.28;3.03;;;;;;;15.62;100.00;100034.53;4900098;28;20549;-79
2023/07/29 02:35:15;;;;;;;4.63;2.78;;;;;;;15.70;100.00;100045.66;4928067;29;20067;-79
2023/07/29 02:37:42;;;;;;;3.42;3.08;;;;;;;15.74;100.00;100037.44;4927292;28;20048;-80
2023/07/29 02:40:09;;;;;;;8.88;5.97;;;;;;;15.70;100.00;100046.50;4987688;28;20139;-81
2023/07/29 02:42:36;;;;;;;34.25;22.10;;;;;;;15.77;100.00;100047.91;4930130;28;20035;-80
2023/07/29 02:45:03;;;;;;;20.90;15.80;;;;;;;15.68;100.00;100058.19;4934510;28;20098;-81
2023/07/29 02:47:30;;;;;;;26.52;18.83;;;;;;;15.63;100.00;100058.41;4930874;28;20123;-80
2023/07/29 02:49:56;;;;;;;29.13;20.73;;;;;;;15.58;100.00;100051.59;4903210;28;20086;-80
2023/07/29 02:52:23;;;;;;;41.30;27.80;;;;;;;15.57;100.00;100056.06;4898429;28;20067;-80
2023/07/29 02:54:50;;;;;;;34.22;25.45;;;;;;;15.57;100.00;100061.38;4933091;28;20035;-80
2023/07/29 02:57:17;;;;;;;31.33;21.63;;;;;;;15.58;100.00;100063.09;5008968;28;20090;-80
2023/07/29 02:59:44;;;;;;;12.25;9.70;;;;;;;15.68;100.00;100064.38;4933486;28;20063;-79
2023/07/29 03:02:11;;;;;;;12.27;8.35;;;;;;;15.77;100.00;100055.91;4920335;29;20066;-79
2023/07/29 03:04:37;;;;;;;10.20;6.63;;;;;;;15.70;100.00;100062.50;4939764;28;20048;-79
2023/07/29 03:07:04;;;;;;;22.65;13.70;;;;;;;15.72;100.00;100062.41;4929124;28;20184;-79
2023/07/29 03:09:32;;;;;;;21.45;13.00;;;;;;;15.71;100.00;100058.88;4930729;28;20036;-81
2023/07/29 03:12:00;;;;;;;27.48;14.57;;;;;;;15.70;100.00;100065.16;4940082;28;20053;-79
2023/07/29 03:14:27;;;;;;;18.52;11.93;;;;;;;15.76;100.00;100058.66;4991465;28;20051;-80
2023/07/29 03:16:54;;;;;;;15.80;9.65;;;;;;;15.80;100.00;100078.00;4917744;28;20127;-79
2023/07/29 03:19:21;;;;;;;11.35;8.43;;;;;;;15.83;100.00;100062.75;4931657;28;20674;-80
2023/07/29 03:21:47;;;;;;;12.85;7.80;;;;;;;15.81;100.00;100061.97;4915314;28;20065;-79
2023/07/29 03:24:14;;;;;;;10.50;7.28;;;;;;;15.84;100.00;100071.59;5001932;28;20098;-80
2023/07/29 03:26:41;;;;;;;11.32;7.88;;;;;;;15.86;100.00;100072.38;4925786;28;20046;-81
2023/07/29 03:29:12;;;;;;;9.90;6.70;;;;;;;15.87;100.00;100074.09;4923978;28;20408;-82
2023/07/29 03:31:38;;;;;;;9.75;6.70;;;;;;;15.90;100.00;100073.94;4926858;28;20048;-80
2023/07/29 03:34:05;;;;;;;8.75;6.00;;;;;;;15.96;100.00;100076.28;4929054;28;20048;-81
2023/07/29 03:36:32;;;;;;;9.77;6.05;;;;;;;15.96;100.00;100079.78;4931765;28;20079;-80
2023/07/29 03:39:00;;;;;;;8.85;5.57;;;;;;;16.03;100.00;100091.00;4918985;28;20082;-80
2023/07/29 03:41:27;;;;;;;10.32;6.18;;;;;;;16.08;100.00;100088.97;4932679;28;20130;-81
2023/07/29 03:43:54;;;;;;;8.10;6.05;;;;;;;16.08;100.00;100091.63;4924674;28;20094;-81
2023/07/29 03:46:22;;;;;;;8.43;5.35;;;;;;;16.13;100.00;100086.03;4919091;28;20489;-80
2023/07/29 03:48:49;;;;;;;8.60;6.18;;;;;;;16.22;100.00;100073.09;4996744;28;20090;-80
2023/07/29 03:51:15;;;;;;;7.00;5.45;;;;;;;16.21;100.00;100078.50;4923580;28;20039;-80
2023/07/29 03:53:42;;;;;;;8.32;4.97;;;;;;;16.20;100.00;100085.66;4905374;28;20055;-80
2023/07/29 03:56:09;;;;;;;7.93;5.38;;;;;;;16.21;100.00;100075.84;4928241;28;20044;-81
2023/07/29 03:58:35;;;;;;;7.47;5.13;;;;;;;16.20;100.00;100074.13;4929255;28;20051;-80
2023/07/29 04:01:02;;;;;;;7.85;5.18;;;;;;;16.20;100.00;100064.31;4914430;28;20075;-80
2023/07/29 04:03:29;;;;;;;9.13;6.03;;;;;;;16.19;100.00;100067.94;4990073;28;20412;-79
2023/07/29 04:05:56;;;;;;;7.32;5.43;;;;;;;16.20;100.00;100074.13;4926748;28;20044;-81
2023/07/29 04:08:23;;;;;;;7.53;5.07;;;;;;;16.25;100.00;100072.94;4909580;28;20071;-84
2023/07/29 04:10:50;;;;;;;8.50;5.07;;;;;;;16.22;100.00;100069.56;4992751;28;20129;-81
2023/07/29 04:13:17;;;;;;;5.80;4.47;;;;;;;16.17;100.00;100064.50;4908581;28;20131;-81
2023/07/29 04:15:44;;;;;;;5.60;3.83;;;;;;;16.14;100.00;100066.44;4897972;28;20039;-80
2023/07/29 04:18:11;;;;;;;5.53;4.18;;;;;;;16.13;100.00;100059.41;4998723;28;20055;-83
2023/07/29 04:20:38;;;;;;;7.07;4.35;;;;;;;16.12;100.00;100058.53;4913694;28;20055;-80
2023/07/29 04:23:05;;;;;;;4.78;3.60;;;;;;;16.12;100.00;100058.53;4913156;28;20043;-83
2023/07/29 04:25:31;;;;;;;5.57;4.25;;;;;;;16.16;100.00;100073.44;4893188;28;20040;-81
2023/07/29 04:27:58;;;;;;;6.43;4.70;;;;;;;16.17;100.00;100067.16;4971293;28;20075;-81
2023/07/29 04:30:25;;;;;;;5.85;4.47;;;;;;;16.22;100.00;100075.75;4925654;28;20036;-82
2023/07/29 04:32:52;;;;;;;6.85;4.63;;;;;;;16.24;100.00;100079.22;4891152;28;20079;-81
2023/07/29 04:35:19;;;;;;;6.70;5.05;;;;;;;16.27;100.00;100079.06;4919747;28;20270;-82
2023/07/29 04:37:47;;;;;;;6.03;4.63;;;;;;;16.28;100.00;100077.25;4917085;28;20047;-80
2023/07/29 04:40:15;;;;;;;6.70;4.88;;;;;;;16.36;100.00;100066.19;5006882;28;20201;-81
2023/07/29 04:42:42;;;;;;;7.18;5.03;;;;;;;16.42;100.00;100069.38;4900964;28;20055;-80
2023/07/29 04:45:09;;;;;;;6.68;5.53;;;;;;;16.47;100.00;100063.78;4913485;28;20043;-79
2023/07/29 04:47:35;;;;;;;8.93;5.55;;;;;;;16.50;100.00;100064.50;4928878;28;20079;-80
2023/07/29 04:50:02;;;;;;;5.80;4.28;;;;;;;16.58;100.00;100053.41;4925837;28;20059;-79
2023/07/29 04:52:29;;;;;;;6.72;5.00;;;;;;;16.54;100.00;100050.03;4908786;29;20083;-80
2023/07/29 04:54:55;;;;;;;6.30;4.40;;;;;;;16.65;100.00;100054.81;4935473;28;20555;-80
2023/07/29 04:57:22;;;;;;;5.00;3.95;;;;;;;16.79;100.00;100060.25;4918190;28;20138;-80
2023/07/29 04:59:49;;;;;;;6.13;4.22;;;;;;;16.92;100.00;100051.56;4913047;28;20073;-80
2023/07/29 05:02:16;;;;;;;6.47;4.20;;;;;;;17.07;100.00;100054.25;4919477;28;20048;-79
2023/07/29 05:04:42;;;;;;;6.53;4.70;;;;;;;17.15;100.00;100056.44;4892054;28;20102;-80
2023/07/29 05:07:09;;;;;;;4.97;3.65;;;;;;;17.27;100.00;100057.56;4909968;29;20048;-79
2023/07/29 05:09:36;;;;;;;5.63;4.75;;;;;;;17.31;100.00;100061.75;4922699;28;20048;-79
2023/07/29 05:12:03;;;;;;;5.20;4.18;;;;;;;17.25;100.00;100054.13;4937859;28;20105;-80
2023/07/29 05:14:30;;;;;;;5.47;4.03;;;;;;;17.20;100.00;100051.72;4920169;28;20123;-80
2023/07/29 05:16:56;;;;;;;5.20;4.20;;;;;;;17.09;100.00;100043.47;4928988;28;20443;-81
2023/07/29 05:19:23;;;;;;;5.20;3.63;;;;;;;17.12;100.00;100045.94;4900216;28;20050;-81
2023/07/29 05:21:50;;;;;;;5.22;3.97;;;;;;;17.16;100.00;100034.16;4928024;28;20119;-81
2023/07/29 05:24:17;;;;;;;5.47;4.13;;;;;;;17.22;100.00;100028.44;4928830;28;20097;-82
2023/07/29 05:26:43;;;;;;;6.03;3.83;;;;;;;17.33;100.00;100023.38;4928357;28;20084;-81
2023/07/29 05:29:10;;;;;;;5.35;4.30;;;;;;;17.38;100.00;100026.63;4934054;28;20048;-80
2023/07/29 05:31:37;;;;;;;7.57;4.55;;;;;;;17.45;100.00;100025.31;4985813;28;20047;-81
2023/07/29 05:34:04;;;;;;;6.30;4.45;;;;;;;17.52;100.00;100028.47;4913088;28;20056;-81
2023/07/29 05:36:31;;;;;;;5.82;4.97;;;;;;;17.43;100.00;100016.53;4929177;28;20040;-81
2023/07/29 05:38:58;;;;;;;5.65;4.05;;;;;;;17.54;100.00;100020.38;4934094;28;20056;-81
2023/07/29 05:41:27;;;;;;;5.90;4.30;;;;;;;17.91;100.00;100022.59;4929571;28;20052;-81
2023/07/29 05:43:54;;;;;;;7.07;4.70;;;;;;;18.54;100.00;100014.19;4905071;28;20048;-81
2023/07/29 05:46:20;;;;;;;5.68;4.47;;;;;;;18.92;100.00;100018.03;4930260;28;20127;-81
2023/07/29 05:48:47;;;;;;;6.43;4.65;;;;;;;18.84;100.00;100007.88;4978267;28;20161;-81
2023/07/29 05:51:14;;;;;;;5.95;4.78;;;;;;;18.67;100.00;100005.41;4900073;28;20062;-81
2023/07/29 05:53:41;;;;;;;6.45;4.93;;;;;;;18.88;100.00;100011.19;5000856;28;20031;-80
2023/07/29 05:56:07;;;;;;;5.10;4.57;;;;;;;18.91;100.00;100016.31;4926193;28;20070;-81
2023/07/29 05:58:34;;;;;;;5.63;4.47;;;;;;;19.30;100.00;100018.22;4998050;28;20130;-81
2023/07/29 06:01:01;;;;;;;4.75;4.35;;;;;;;19.33;100.00;100015.31;4930238;28;20046;-81
2023/07/29 06:03:27;;;;;;;4.65;4.13;;;;;;;19.81;100.00;100019.19;4904909;28;20596;-80
2023/07/29 06:05:54;;;;;;;4.85;3.97;;;;;;;20.74;100.00;100009.06;4932492;28;20040;-80
2023/07/29 06:08:21;;;;;;;6.15;4.25;;;;;;;21.65;100.00;100006.72;4928727;28;20067;-81
2023/07/29 06:10:48;;;;;;;5.80;4.45;;;;;;;21.75;100.00;100006.88;4916243;28;20043;-81
2023/07/29 06:13:14;;;;;;;4.13;3.65;;;;;;;22.38;100.00;99995.63;4929036;28;20042;-81
2023/07/29 06:15:41;;;;;;;5.05;4.07;;;;;;;23.15;100.00;100000.16;4925448;28;20429;-80
2023/07/29 06:18:09;;;;;;;4.57;4.15;;;;;;;23.49;94.90;99992.78;5008786;28;20489;-80
2023/07/29 06:20:36;;;;;;;3.95;3.65;;;;;;;23.86;93.38;99996.75;4904895;28;20131;-81
2023/07/29 06:23:03;;;;;;;4.97;4.38;;;;;;;23.48;94.67;100000.03;4984128;28;20066;-81
2023/07/29 06:25:30;;;;;;;4.15;3.55;;;;;;;23.57;95.10;99995.69;4993131;28;20126;-80
2023/07/29 06:27:58;;;;;;;3.95;3.55;;;;;;;23.63;96.72;100000.59;4932400;28;20194;-80
2023/07/29 06:30:25;;;;;;;4.00;3.60;;;;;;;23.76;95.00;99995.84;4912238;29;20054;-79
2023/07/29 06:32:51;;;;;;;4.00;3.60;;;;;;;24.00;90.72;99992.88;4929868;28;20040;-80
2023/07/29 06:35:18;;;;;;;4.30;3.90;;;;;;;24.28;90.03;99998.53;4939134;28;20061;-80
2023/07/29 06:37:45;;;;;;;4.25;3.85;;;;;;;24.29;89.67;99989.47;4928060;28;21252;-80
2023/07/29 06:40:12;;;;;;;3.65;3.30;;;;;;;24.34;87.29;99989.94;5011186;28;20070;-79
2023/07/29 06:42:38;;;;;;;4.13;3.40;;;;;;;24.14;88.99;99994.38;4927510;28;20040;-78
2023/07/29 06:45:06;;;;;;;3.35;3.05;;;;;;;24.12;89.24;99991.78;4998373;28;20040;-79
2023/07/29 06:47:33;;;;;;;4.20;3.72;;;;;;;24.10;90.77;99988.38;4933304;28;20123;-79
2023/07/29 06:50:00;;;;;;;3.85;3.22;;;;;;;24.08;88.95;99987.66;4997202;28;20063;-78
2023/07/29 06:52:27;;;;;;;4.20;3.10;;;;;;;23.92;92.14;99994.53;4930024;28;20119;-77
2023/07/29 06:54:54;;;;;;;3.90;3.40;;;;;;;23.88;89.53;99988.56;4911373;28;20036;-78
2023/07/29 06:57:20;;;;;;;3.30;3.00;;;;;;;23.67;89.29;99985.00;4921307;28;20762;-78
2023/07/29 06:59:47;;;;;;;3.95;3.53;;;;;;;23.54;91.51;99988.72;4933548;28;20074;-77
2023/07/29 07:02:14;;;;;;;3.70;3.40;;;;;;;23.68;91.67;99987.56;4906095;28;20390;-77
2023/07/29 07:04:41;;;;;;;4.30;3.58;;;;;;;23.72;86.70;99985.47;4915019;28;20046;-78
2023/07/29 07:07:07;;;;;;;4.45;3.35;;;;;;;23.61;89.88;99980.97;5014940;28;20115;-77
2023/07/29 07:09:34;;;;;;;4.05;3.15;;;;;;;22.87;89.38;99983.59;4914569;28;20036;-78
2023/07/29 07:12:01;;;;;;;4.35;3.83;;;;;;;22.97;86.34;99986.38;4914137;28;20223;-78
2023/07/29 07:14:28;;;;;;;4.22;3.25;;;;;;;23.66;90.27;99986.84;4930839;28;20040;-77
2023/07/29 07:16:54;;;;;;;5.00;3.17;;;;;;;23.57;87.76;99984.91;4929037;28;20039;-78
2023/07/29 07:19:21;;;;;;;3.63;3.08;;;;;;;23.95;90.30;99981.63;4925258;28;20050;-77
2023/07/29 07:21:48;;;;;;;3.75;3.05;;;;;;;24.26;88.77;99987.03;4924119;28;20632;-77
2023/07/29 07:24:14;;;;;;;4.00;3.20;;;;;;;24.43;85.80;99983.72;4994232;28;20099;-78
2023/07/29 07:26:41;;;;;;;4.05;3.00;;;;;;;24.43;89.31;99981.03;5012170;28;20067;-77
2023/07/29 07:29:08;;;;;;;3.10;2.80;;;;;;;24.48;86.75;99980.63;4998285;28;20052;-78
2023/07/29 07:31:35;;;;;;;3.70;3.15;;;;;;;24.41;81.34;99986.56;4930910;28;20050;-78
2023/07/29 07:34:02;;;;;;;3.53;3.22;;;;;;;24.02;80.91;99980.09;4910583;28;20051;-77
2023/07/29 07:36:29;;;;;;;3.03;2.72;;;;;;;24.01;84.18;99975.69;4925855;28;20040;-78
2023/07/29 07:38:57;;;;;;;4.03;2.63;;;;;;;24.04;86.41;99978.13;4975362;28;20047;-76
2023/07/29 07:41:24;;;;;;;4.15;3.10;;;;;;;24.10;83.42;99974.88;4920919;28;20140;-78
2023/07/29 07:43:51;;;;;;;3.55;3.10;;;;;;;24.02;88.14;99973.84;4928707;28;20082;-77
2023/07/29 07:46:18;;;;;;;3.90;3.50;;;;;;;23.84;83.48;99973.63;4904189;28;20072;-78
2023/07/29 07:48:44;;;;;;;3.63;3.33;;;;;;;24.01;84.11;99969.44;4934818;28;20563;-77
2023/07/29 07:51:12;;;;;;;3.42;3.13;;;;;;;23.89;87.85;99965.97;4995890;28;20094;-77
2023/07/29 07:53:40;;;;;;;4.00;3.30;;;;;;;24.13;88.51;99961.16;4954992;28;20047;-77
2023/07/29 07:56:07;;;;;;;4.55;3.60;;;;;;;24.24;81.35;99953.94;4932138;28;20043;-80
2023/07/29 07:58:34;;;;;;;4.88;3.05;;;;;;;24.22;83.74;99954.06;4929805;28;20039;-79
2023/07/29 08:01:04;;;;;;;3.58;3.28;;;;;;;24.27;80.80;99956.34;4993766;28;20144;-77
2023/07/29 08:03:31;;;;;;;3.22;2.92;;;;;;;24.25;83.10;99958.34;4910697;28;20522;-77
2023/07/29 08:05:58;;;;;;;4.45;3.78;;;;;;;24.27;84.46;99954.50;4935831;28;20055;-78
2023/07/29 08:08:26;;;;;;;4.65;3.78;;;;;;;24.14;86.12;99948.50;4936130;28;20054;-78
2023/07/29 08:10:56;;;;;;;4.10;3.45;;;;;;;24.07;82.76;99940.09;4929372;28;20042;-77
2023/07/29 08:13:23;;;;;;;3.75;3.33;;;;;;;24.01;87.47;99951.41;4982403;28;20040;-78
2023/07/29 08:15:51;;;;;;;5.57;3.42;;;;;;;24.01;88.43;99951.41;4916589;28;20046;-78
2023/07/29 08:18:18;;;;;;;3.75;3.45;;;;;;;24.14;88.47;99953.91;4928083;28;20040;-78
2023/07/29 08:20:53;;;;;;;4.70;3.30;;;;;;;24.29;86.67;99954.38;4999795;28;20051;-77
2023/07/29 08:23:20;;;;;;;3.92;3.35;;;;;;;24.54;89.29;99953.06;5019834;28;20122;-77
2023/07/29 08:26:01;;;;;;;4.13;3.70;;;;;;;24.69;82.48;99955.25;4934125;28;20413;-78
2023/07/29 08:28:32;;;;;;;3.80;3.50;;;;;;;24.63;84.20;99947.69;4920128;28;20043;-78
2023/07/29 08:31:00;;;;;;;3.88;3.47;;;;;;;24.74;83.28;99948.59;4930599;28;20031;-78
2023/07/29 08:33:27;;;;;;;3.85;3.45;;;;;;;24.59;77.95;99942.72;4917272;28;20134;-79
2023/07/29 08:35:53;;;;;;;4.80;4.40;;;;;;;24.82;82.95;99935.22;4916504;28;20051;-78
2023/07/29 08:38:21;;;;;;;4.35;4.00;;;;;;;25.11;80.46;99941.53;4932258;28;20047;-78
2023/07/29 08:41:18;;;;;;;5.05;4.55;;;;;;;25.37;81.61;99939.09;5015755;28;20122;-77
2023/07/29 08:43:52;;;;;;;7.18;5.47;;;;;;;25.57;79.41;99937.25;4938587;28;20055;-78
2023/07/29 08:46:20;;;;;;;4.38;3.97;;;;;;;25.62;76.87;99943.06;4908052;28;20461;-78
2023/07/29 08:48:47;;;;;;;7.65;5.03;;;;;;;25.68;75.85;99947.88;4918320;28;20055;-78
2023/07/29 08:51:14;;;;;;;4.97;4.57;;;;;;;25.66;78.81;99949.91;4937986;28;20059;-78
2023/07/29 08:53:41;;;;;;;4.85;4.30;;;;;;;25.65;78.21;99944.63;4925884;28;20070;-78
2023/07/29 08:56:08;;;;;;;5.63;5.13;;;;;;;25.50;78.34;99942.38;4937390;28;20175;-77
2023/07/29 08:58:35;;;;;;;7.40;4.95;;;;;;;25.35;79.46;99935.69;4911526;28;20086;-77
2023/07/29 09:01:02;;;;;;;5.93;5.32;;;;;;;25.26;79.60;99942.81;4929947;28;20040;-78
2023/07/29 09:03:29;;;;;;;4.63;4.22;;;;;;;25.11;79.68;99941.53;4924542;28;20508;-78
2023/07/29 09:05:57;;;;;;;5.55;4.88;;;;;;;25.09;83.31;99930.00;4981013;28;20093;-78
2023/07/29 09:08:26;;;;;;;4.93;4.53;;;;;;;25.14;84.21;99932.28;5012891;28;20036;-77
2023/07/29 09:10:54;;;;;;;5.75;4.90;;;;;;;25.20;83.01;99923.59;4931781;29;20473;-78
2023/07/29 09:13:21;;;;;;;5.38;4.90;;;;;;;25.11;81.73;99927.16;4921349;28;20048;-77
2023/07/29 09:15:48;;;;;;;6.65;4.57;;;;;;;25.06;82.60;99926.75;4934470;28;20036;-78
2023/07/29 09:18:16;;;;;;;5.50;4.95;;;;;;;25.40;83.79;99925.31;4911405;28;20072;-78
2023/07/29 09:20:43;;;;;;;6.68;5.18;;;;;;;25.59;77.06;99905.47;4936223;28;20039;-78
2023/07/29 09:23:10;;;;;;;7.55;4.93;;;;;;;25.83;78.91;99910.44;4911711;28;20043;-80
2023/07/29 09:25:39;;;;;;;5.22;4.82;;;;;;;25.93;76.31;99913.97;4914701;28;20135;-80
2023/07/29 09:28:10;;;;;;;4.95;4.55;;;;;;;25.85;77.67;99913.00;4924704;28;20508;-81
2023/07/29 09:30:39;;;;;;;5.63;4.35;;;;;;;25.81;78.56;99913.28;4912732;28;20044;-81
2023/07/29 09:33:06;;;;;;;6.00;4.82;;;;;;;25.64;77.18;99911.28;4992353;28;20142;-81
2023/07/29 09:35:35;;;;;;;6.00;5.20;;;;;;;25.43;79.35;99919.59;4922109;28;20516;-81
2023/07/29 09:38:02;;;;;;;6.57;4.93;;;;;;;25.21;80.08;99912.63;5003381;28;20085;-81
2023/07/29 09:40:37;;;;;;;5.47;4.80;;;;;;;24.95;83.30;99908.78;4926084;28;20404;-80
2023/07/29 09:43:04;;;;;;;8.75;6.05;;;;;;;24.90;84.72;99902.97;4911035;28;20050;-80
2023/07/29 09:45:39;;;;;;;4.65;4.20;;;;;;;24.92;85.35;99898.25;4919626;28;20148;-80
2023/07/29 09:48:09;;;;;;;5.65;5.15;;;;;;;25.06;85.17;99889.75;4933303;28;20547;-81
2023/07/29 09:50:40;;;;;;;5.80;4.78;;;;;;;25.29;84.10;99889.44;4901626;28;20128;-83
2023/07/29 09:53:07;;;;;;;4.82;4.43;;;;;;;25.56;77.93;99889.56;4920374;28;20039;-82
2023/07/29 09:55:33;;;;;;;6.65;4.78;;;;;;;25.73;79.20;99887.97;4898636;28;20181;-82
2023/07/29 09:58:02;;;;;;;4.78;4.38;;;;;;;25.75;78.36;99884.13;4926128;28;20031;-81
2023/07/29 10:00:32;;;;;;;5.10;4.47;;;;;;;25.60;74.46;99882.00;4909632;28;20043;-80
2023/07/29 10:02:59;;;;;;;5.20;4.70;;;;;;;25.57;74.54;99876.88;4928947;28;20036;-81
2023/07/29 10:05:27;;;;;;;7.90;4.85;;;;;;;25.53;79.00;99868.19;4929051;28;20102;-81
2023/07/29 10:07:55;;;;;;;5.00;4.57;;;;;;;25.50;75.81;99868.50;4921527;28;20054;-81
2023/07/29 10:10:23;;;;;;;6.15;4.57;;;;;;;25.49;77.50;99870.34;4939020;28;20059;-80
2023/07/29 10:12:50;;;;;;;4.22;3.92;;;;;;;25.49;78.75;99869.50;5004225;28;20055;-79
2023/07/29 10:15:17;;;;;;;6.22;4.20;;;;;;;25.52;78.33;99867.34;4927797;28;20044;-81
2023/07/29 10:17:45;;;;;;;4.70;4.30;;;;;;;25.43;77.86;99867.38;4933124;28;20047;-81
2023/07/29 10:20:15;;;;;;;5.10;4.63;;;;;;;25.32;79.42;99873.81;4902874;28;20058;-82
2023/07/29 10:22:44;;;;;;;4.85;4.13;;;;;;;25.30;79.48;99861.41;4895027;28;20141;-81
2023/07/29 10:25:19;;;;;;;4.32;3.95;;;;;;;25.28;82.86;99864.25;5008253;28;20118;-81
2023/07/29 10:27:49;;;;;;;4.65;4.25;;;;;;;25.27;81.97;99867.97;4910855;28;20059;-82
2023/07/29 10:30:16;;;;;;;4.82;4.43;;;;;;;25.37;81.08;99860.69;4904767;28;20097;-82
2023/07/29 10:32:44;;;;;;;4.57;4.18;;;;;;;25.15;78.47;99856.47;4921870;28;20036;-81
2023/07/29 10:35:12;;;;;;;4.80;3.83;;;;;;;25.32;79.99;99863.00;4912276;28;20140;-81
2023/07/29 10:37:40;;;;;;;5.40;4.32;;;;;;;25.31;82.85;99860.41;4924699;28;20050;-82
2023/07/29 10:40:09;;;;;;;4.18;3.72;;;;;;;25.30;80.38;99861.41;4988496;28;20070;-82
2023/07/29 10:42:36;;;;;;;4.35;3.95;;;;;;;25.32;81.43;99851.31;4894905;28;20916;-81
2023/07/29 10:45:20;;;;;;;5.65;4.10;;;;;;;25.27;80.81;99862.56;4926179;28;20671;-81
2023/07/29 10:47:47;;;;;;;;;;;;;;;25.22;79.43;99856.72;4919353;28;20167;-81
2023/07/29 10:50:22;;;;;;;4.55;4.15;;;;;;;25.01;81.42;99862.28;4984110;28;19931;-81
2023/07/29 10:52:51;;;;;;;4.53;4.13;;;;;;;24.89;82.33;99855.31;4897782;28;20079;-81
2023/07/29 10:55:36;;;;;;;5.25;4.65;;;;;;;24.68;83.07;99859.00;4949117;28;20042;-81
2023/07/29 10:58:09;;;;;;;4.72;4.18;;;;;;;24.52;87.05;99860.53;4902734;28;20416;-82
2023/07/29 11:00:36;;;;;;;4.50;4.10;;;;;;;24.33;92.34;99855.97;4916736;28;20075;-82
2023/07/29 11:03:05;;;;;;;5.13;4.63;;;;;;;24.25;95.69;99853.06;4977036;28;20036;-82
2023/07/29 11:05:50;;;;;;;5.28;4.80;;;;;;;24.21;100.00;99859.72;4927660;28;20813;-82
2023/07/29 11:08:20;;;;;;;5.05;4.28;;;;;;;24.11;100.00;99854.31;4945452;28;20106;-81
2023/07/29 11:11:08;;;;;;;5.85;4.88;;;;;;;24.09;100.00;99859.84;4927874;28;20055;-80
2023/07/29 11:13:36;;;;;;;5.13;4.63;;;;;;;24.14;100.00;99860.28;4907929;28;20500;-80
2023/07/29 11:16:04;;;;;;;5.68;5.18;;;;;;;24.16;100.00;99868.25;4905683;28;20079;-81
2023/07/29 11:18:33;;;;;;;4.93;4.43;;;;;;;24.07;100.00;99867.22;4916965;28;20040;-82
2023/07/29 11:21:02;;;;;;;5.20;4.70;;;;;;;24.03;100.00;99867.63;4993273;28;20607;-82
2023/07/29 11:23:33;;;;;;;5.82;5.03;;;;;;;23.91;100.00;99861.47;4898938;28;20654;-81
2023/07/29 11:26:01;;;;;;;5.30;4.90;;;;;;;23.71;100.00;99862.38;4932457;28;20481;-82
2023/07/29 11:28:28;;;;;;;6.38;5.10;;;;;;;23.51;100.00;99864.94;4937020;28;20052;-83